Time;durP1;ratioP1;P1;durP2;ratioP2;P2;SDS_P1;SDS_P2;PMS_P1;PMS_P2;Temp;Humidity;BMP_temperature;BMP_pressure;BME280_temperature;BME280_humidity;BME280_pressure;Samples;Min_cycle;Max_cycle;Signal;HPM_P1;HPM_P2
2022/01/17 00:00:55;;;;;;;11.15;6.20;;;0.10;69.10;;;;;;5038226;28;20033;-37
2022/01/17 00:03:24;;;;;;;12.98;6.22;;;0.10;69.20;;;;;;5038175;28;20338;-38
2022/01/17 00:05:52;;;;;;;16.25;7.03;;;0.10;69.30;;;;;;5038191;28;20026;-38
2022/01/17 00:08:17;;;;;;;14.10;6.60;;;0.10;69.30;;;;;;5038057;28;20025;-37
2022/01/17 00:10:43;;;;;;;14.63;6.35;;;0.10;69.50;;;;;;5037743;28;20026;-37
2022/01/17 00:13:14;;;;;;;16.92;6.60;;;0.00;69.50;;;;;;5038201;28;20033;-36
2022/01/17 00:15:49;;;;;;;16.10;6.53;;;0.00;69.60;;;;;;5038062;28;20088;-36
2022/01/17 00:20:45;;;;;;;12.32;5.95;;;-0.10;69.80;;;;;;5037393;28;20029;-37
2022/01/17 00:23:11;;;;;;;13.38;6.20;;;-0.10;69.90;;;;;;5038057;28;20025;-36
2022/01/17 00:25:37;;;;;;;19.02;6.80;;;-0.10;70.00;;;;;;5037456;28;20299;-37
2022/01/17 00:28:03;;;;;;;13.27;6.85;;;-0.10;70.10;;;;;;5037881;28;20036;-36
2022/01/17 00:30:29;;;;;;;16.33;6.45;;;-0.10;70.10;;;;;;5037387;28;20021;-37
2022/01/17 00:32:54;;;;;;;13.82;6.38;;;-0.20;70.20;;;;;;5037598;28;20075;-36
2022/01/17 00:35:20;;;;;;;21.50;7.07;;;-0.20;70.40;;;;;;5037874;28;20041;-37
2022/01/17 00:37:46;;;;;;;19.08;7.00;;;-0.30;70.30;;;;;;5037755;28;20064;-36
2022/01/17 00:40:12;;;;;;;16.55;7.22;;;-0.30;70.40;;;;;;5037538;28;20036;-36
2022/01/17 00:42:39;;;;;;;16.42;7.07;;;-0.30;70.50;;;;;;5037289;28;20025;-36
2022/01/17 00:45:07;;;;;;;13.77;6.78;;;-0.30;70.60;;;;;;5037441;28;20041;-36
2022/01/17 00:47:33;;;;;;;14.45;6.55;;;-0.30;70.60;;;;;;5037550;28;20032;-36
2022/01/17 00:49:59;;;;;;;19.48;6.90;;;-0.30;70.80;;;;;;5036892;28;20457;-36
2022/01/17 00:52:24;;;;;;;15.30;7.00;;;-0.30;71.00;;;;;;5037455;28;20032;-36
2022/01/17 00:54:50;;;;;;;16.50;7.53;;;-0.30;71.00;;;;;;5037144;28;20041;-37
2022/01/17 00:57:16;;;;;;;20.25;7.28;;;-0.30;71.10;;;;;;5035859;28;20112;-36
2022/01/17 00:59:41;;;;;;;16.50;8.10;;;-0.30;71.30;;;;;;5037243;28;20030;-36
2022/01/17 01:02:07;;;;;;;20.00;8.00;;;-0.30;71.40;;;;;;5036976;28;20029;-39
2022/01/17 01:04:33;;;;;;;14.10;7.68;;;-0.40;71.40;;;;;;5037051;28;20036;-37
2022/01/17 01:06:58;;;;;;;14.88;7.10;;;-0.40;71.40;;;;;;5036829;28;20406;-36
2022/01/17 01:09:27;;;;;;;15.85;6.93;;;-0.40;71.50;;;;;;5036996;28;20366;-36
2022/01/17 01:11:53;;;;;;;24.58;7.57;;;-0.40;71.60;;;;;;5037178;28;20056;-36
2022/01/17 01:14:19;;;;;;;15.85;7.47;;;-0.40;71.60;;;;;;5036826;28;20044;-37
2022/01/17 01:16:44;;;;;;;18.05;7.68;;;-0.40;71.80;;;;;;5036585;28;20026;-36
2022/01/17 01:19:38;;;;;;;23.00;8.10;;;-0.40;71.70;;;;;;5036958;28;20033;-36
2022/01/17 01:27:53;;;;;;;19.13;7.85;;;-0.40;71.60;;;;;;5036637;28;20028;-37
2022/01/17 01:30:21;;;;;;;20.40;7.38;;;-0.50;71.70;;;;;;5036617;28;20080;-36
2022/01/17 01:32:51;;;;;;;15.50;7.30;;;-0.50;71.90;;;;;;5035921;28;20075;-36
2022/01/17 01:35:20;;;;;;;14.80;7.65;;;-0.50;72.00;;;;;;5036708;28;20033;-34
2022/01/17 01:37:47;;;;;;;12.90;6.78;;;-0.60;71.90;;;;;;5036589;28;20040;-36
2022/01/17 01:40:16;;;;;;;17.75;8.02;;;-0.60;71.90;;;;;;5035179;28;20088;-37
2022/01/17 01:42:43;;;;;;;24.98;8.57;;;-0.60;72.10;;;;;;5036682;28;20021;-37
2022/01/17 01:45:12;;;;;;;18.85;8.52;;;-0.60;72.20;;;;;;5035330;28;20025;-36
2022/01/17 01:47:38;;;;;;;17.20;7.90;;;-0.60;72.30;;;;;;5035728;28;20026;-36
2022/01/17 01:50:06;;;;;;;12.57;6.65;;;-0.60;72.40;;;;;;5035946;28;20460;-36
2022/01/17 01:52:32;;;;;;;14.77;7.38;;;-0.70;72.40;;;;;;5036075;28;20025;-38
2022/01/17 01:54:58;;;;;;;22.23;7.82;;;-0.70;72.40;;;;;;5036364;28;20059;-36
2022/01/17 01:57:23;;;;;;;17.63;7.93;;;-0.70;72.50;;;;;;5036421;28;20415;-38
2022/01/17 01:59:49;;;;;;;14.63;7.10;;;-0.70;72.50;;;;;;5036176;28;20476;-35
2022/01/17 02:02:15;;;;;;;16.75;7.78;;;-0.70;72.60;;;;;;5036294;28;20029;-37
2022/01/17 02:04:40;;;;;;;14.68;7.00;;;-0.70;72.80;;;;;;5036332;28;20046;-36
2022/01/17 02:07:06;;;;;;;17.73;7.20;;;-0.80;72.90;;;;;;5036327;28;20375;-36
2022/01/17 02:09:33;;;;;;;18.27;8.02;;;-0.80;72.90;;;;;;5034955;28;20068;-36
2022/01/17 02:11:59;;;;;;;15.27;7.82;;;-0.80;72.90;;;;;;5036246;28;20291;-39
2022/01/17 02:14:24;;;;;;;18.63;7.63;;;-0.80;72.80;;;;;;5034791;28;20037;-39
2022/01/17 02:16:51;;;;;;;20.00;7.65;;;-0.80;72.90;;;;;;5036036;28;20106;-37
2022/01/17 02:19:21;;;;;;;18.40;8.07;;;-0.80;72.90;;;;;;5035873;28;20433;-37
2022/01/17 02:21:50;;;;;;;18.75;7.65;;;-0.80;73.10;;;;;;5036016;28;20030;-36
2022/01/17 02:24:18;;;;;;;16.80;7.53;;;-0.80;73.10;;;;;;5035878;28;20038;-36
2022/01/17 02:26:45;;;;;;;17.38;7.50;;;-0.80;73.10;;;;;;5035979;28;20275;-39
2022/01/17 02:29:11;;;;;;;15.75;7.70;;;-0.90;73.10;;;;;;5035898;28;20044;-37
2022/01/17 02:31:37;;;;;;;14.73;8.32;;;-0.90;73.20;;;;;;5036047;28;20406;-36
2022/01/17 02:34:03;;;;;;;16.52;8.75;;;-0.90;73.20;;;;;;5036010;28;20541;-36
2022/01/17 02:36:30;;;;;;;19.55;8.07;;;-0.80;73.30;;;;;;5035468;28;20030;-36
2022/01/17 02:38:55;;;;;;;16.73;8.02;;;-0.90;73.20;;;;;;5035755;28;20037;-36
2022/01/17 02:41:22;;;;;;;17.42;8.55;;;-0.90;73.30;;;;;;5035260;28;20021;-38
2022/01/17 02:43:48;;;;;;;17.17;7.63;;;-0.90;73.30;;;;;;5037624;28;20030;-38
2022/01/17 02:46:27;;;;;;;17.45;8.02;;;-0.90;73.30;;;;;;5039181;28;20113;-37
2022/01/17 02:48:58;;;;;;;19.10;9.23;;;-0.90;73.40;;;;;;5039568;28;20068;-36
2022/01/17 02:51:24;;;;;;;16.95;7.95;;;-0.90;73.30;;;;;;5039343;28;20021;-37
2022/01/17 02:53:50;;;;;;;14.52;8.30;;;-0.90;73.30;;;;;;5039455;28;20414;-36
2022/01/17 02:56:16;;;;;;;18.48;9.20;;;-0.90;73.20;;;;;;5039145;28;20047;-36
2022/01/17 02:58:42;;;;;;;19.30;9.23;;;-0.80;73.30;;;;;;5039459;28;20034;-38
2022/01/17 03:01:14;;;;;;;19.48;9.45;;;-0.80;73.30;;;;;;5038896;28;20048;-35
2022/01/17 03:03:43;;;;;;;23.90;9.73;;;-0.80;73.90;;;;;;5039443;28;20463;-35
2022/01/17 03:06:10;;;;;;;22.63;9.27;;;-0.80;73.20;;;;;;5039324;28;20043;-37
2022/01/17 03:08:37;;;;;;;25.88;8.95;;;-0.80;73.20;;;;;;5039230;28;20035;-36
2022/01/17 03:11:05;;;;;;;21.77;9.48;;;-0.80;73.10;;;;;;5037614;28;20021;-37
2022/01/17 03:13:34;;;;;;;21.33;8.63;;;-0.80;73.10;;;;;;5039366;28;20052;-36
2022/01/17 03:16:10;;;;;;;16.40;8.65;;;-0.70;73.20;;;;;;5038664;28;20022;-36
2022/01/17 03:18:39;;;;;;;19.73;9.15;;;-0.70;73.20;;;;;;5039363;28;20401;-36
2022/01/17 03:21:07;;;;;;;19.42;9.00;;;-0.70;73.20;;;;;;5038521;28;20024;-39
2022/01/17 03:23:33;;;;;;;19.48;8.52;;;-0.70;73.20;;;;;;5039268;28;20041;-38
2022/01/17 03:25:58;;;;;;;22.58;9.20;;;-0.70;73.20;;;;;;5038898;28;20171;-36
2022/01/17 03:28:25;;;;;;;18.20;8.32;;;-0.70;73.20;;;;;;5038848;28;20159;-38
2022/01/17 03:30:52;;;;;;;17.48;9.73;;;-0.70;73.10;;;;;;5038678;28;20030;-36
2022/01/17 03:33:18;;;;;;;24.25;10.02;;;-0.70;73.10;;;;;;5039103;28;20029;-36
2022/01/17 03:35:44;;;;;;;21.40;9.63;;;-0.70;73.10;;;;;;5038686;28;20025;-36
2022/01/17 03:38:12;;;;;;;19.75;9.63;;;-0.70;72.90;;;;;;5038375;28;20021;-36
2022/01/17 03:40:38;;;;;;;22.25;10.45;;;-0.60;72.90;;;;;;5038612;28;20409;-36
2022/01/17 03:43:05;;;;;;;18.77;9.60;;;-0.60;72.80;;;;;;5038458;28;20087;-38
2022/01/17 03:45:31;;;;;;;21.75;9.77;;;-0.50;72.60;;;;;;5038203;28;20080;-37
2022/01/17 03:47:57;;;;;;;22.20;9.35;;;-0.50;72.50;;;;;;5038475;28;20311;-36
2022/01/17 03:50:24;;;;;;;19.20;9.32;;;-0.50;72.50;;;;;;5038029;28;20072;-36
2022/01/17 03:52:50;;;;;;;18.55;8.75;;;-0.50;72.30;;;;;;5038332;28;20604;-36
2022/01/17 03:55:19;;;;;;;17.25;8.73;;;-0.40;72.30;;;;;;5037362;28;20045;-37
2022/01/17 03:57:45;;;;;;;23.23;9.07;;;-0.40;72.10;;;;;;5038362;28;20108;-37
2022/01/17 04:00:18;;;;;;;22.70;9.27;;;-0.40;72.00;;;;;;5038329;28;20100;-36
2022/01/17 04:02:44;;;;;;;18.75;8.80;;;-0.40;71.90;;;;;;5038288;28;20148;-37
2022/01/17 04:05:10;;;;;;;18.08;9.70;;;-0.30;71.70;;;;;;5038249;28;20422;-38
2022/01/17 04:07:35;;;;;;;30.17;10.85;;;-0.30;71.70;;;;;;5038054;28;20061;-39
2022/01/17 04:10:01;;;;;;;23.85;9.88;;;-0.20;71.60;;;;;;5038141;28;20061;-36
2022/01/17 04:12:27;;;;;;;23.48;12.30;;;-0.20;71.60;;;;;;5038355;28;20037;-36
2022/01/17 04:14:55;;;;;;;22.50;10.82;;;-0.10;71.60;;;;;;5038047;28;20042;-37
2022/01/17 04:17:27;;;;;;;18.83;9.30;;;-0.10;71.40;;;;;;5038146;28;20087;-36
2022/01/17 04:20:03;;;;;;;18.90;9.60;;;0.00;71.20;;;;;;5037906;28;20329;-37
2022/01/17 04:22:34;;;;;;;17.88;8.82;;;0.10;70.80;;;;;;5037936;28;20074;-38
2022/01/17 04:25:00;;;;;;;21.35;9.40;;;0.10;70.50;;;;;;5037947;28;20108;-38
2022/01/17 04:27:25;;;;;;;23.52;8.90;;;0.10;70.20;;;;;;5037717;28;20072;-39
2022/01/17 04:29:51;;;;;;;21.38;8.88;;;0.20;70.10;;;;;;5037764;28;20029;-36
2022/01/17 04:32:17;;;;;;;21.17;8.98;;;0.20;69.90;;;;;;5037849;28;20030;-38
2022/01/17 04:34:42;;;;;;;18.02;9.02;;;0.20;69.60;;;;;;5037603;28;20425;-36
2022/01/17 04:37:09;;;;;;;18.48;9.68;;;0.30;69.40;;;;;;5037550;28;20140;-39
2022/01/17 04:39:35;;;;;;;27.77;9.43;;;0.30;68.90;;;;;;5037552;28;20033;-36
2022/01/17 04:42:05;;;;;;;20.02;9.82;;;0.30;69.00;;;;;;5037535;28;20088;-36
2022/01/17 04:47:15;;;;;;;17.95;8.90;;;0.40;68.60;;;;;;5037347;28;20040;-35
2022/01/17 04:49:40;;;;;;;20.73;9.05;;;0.40;68.20;;;;;;5036889;28;20057;-36
2022/01/17 04:52:12;;;;;;;22.73;9.98;;;0.40;68.10;;;;;;5037424;28;20037;-39
2022/01/17 04:54:43;;;;;;;20.73;10.35;;;0.40;68.20;;;;;;5037433;28;20489;-36
2022/01/17 04:57:12;;;;;;;21.98;9.82;;;0.40;68.10;;;;;;5037324;28;20486;-36
2022/01/17 04:59:42;;;;;;;19.80;9.95;;;0.40;68.20;;;;;;5036815;28;20034;-36
2022/01/17 05:02:09;;;;;;;20.40;9.90;;;0.40;68.20;;;;;;5037258;28;20029;-36
2022/01/17 05:04:35;;;;;;;21.92;9.88;;;0.40;68.20;;;;;;5036977;28;20052;-35
2022/01/17 05:07:01;;;;;;;22.13;9.77;;;0.40;68.10;;;;;;5036830;28;20029;-36
2022/01/17 05:09:27;;;;;;;20.73;10.07;;;0.40;68.30;;;;;;5036936;28;20033;-36
2022/01/17 05:11:53;;;;;;;21.67;10.80;;;0.30;68.30;;;;;;5037091;28;20033;-37
2022/01/17 05:14:19;;;;;;;23.65;11.48;;;0.30;68.40;;;;;;5036686;28;20465;-37
2022/01/17 05:16:53;;;;;;;23.50;11.68;;;0.30;68.40;;;;;;5036517;28;20079;-36
2022/01/17 05:22:04;;;;;;;22.20;10.52;;;0.40;68.60;;;;;;5036191;28;20045;-36
2022/01/17 05:24:30;;;;;;;24.80;10.18;;;0.30;68.50;;;;;;5036699;28;20467;-36
2022/01/17 05:26:56;;;;;;;21.58;10.73;;;0.40;68.50;;;;;;5036515;28;20485;-36
2022/01/17 05:29:22;;;;;;;25.85;10.88;;;0.40;68.50;;;;;;5036674;28;20314;-36
2022/01/17 05:31:48;;;;;;;20.98;10.73;;;0.30;68.50;;;;;;5036422;28;20036;-36
2022/01/17 05:34:14;;;;;;;25.00;11.23;;;0.40;68.60;;;;;;5036255;28;20036;-36
2022/01/17 05:36:39;;;;;;;23.42;10.82;;;0.40;68.70;;;;;;5036224;28;20037;-38
2022/01/17 05:39:05;;;;;;;21.95;10.07;;;0.40;68.70;;;;;;5036346;28;20034;-37
2022/01/17 05:41:31;;;;;;;23.25;10.52;;;0.50;68.70;;;;;;5035849;28;20041;-36
2022/01/17 05:43:58;;;;;;;23.77;9.73;;;0.50;68.60;;;;;;5036311;28;20033;-39
2022/01/17 05:46:24;;;;;;;23.10;9.80;;;0.50;68.30;;;;;;5035693;28;20029;-39
2022/01/17 05:48:49;;;;;;;22.20;10.23;;;0.50;68.10;;;;;;5035366;28;20045;-39
2022/01/17 05:51:15;;;;;;;24.05;10.32;;;0.60;68.10;;;;;;5035704;28;20041;-38
2022/01/17 05:53:41;;;;;;;19.80;11.15;;;0.60;67.80;;;;;;5035959;28;20076;-36
2022/01/17 05:56:07;;;;;;;23.15;10.57;;;0.60;67.80;;;;;;5038930;28;20037;-35
2022/01/17 05:58:32;;;;;;;20.45;10.52;;;0.60;67.80;;;;;;5043094;28;20029;-39
2022/01/17 06:00:58;;;;;;;22.08;10.57;;;0.60;67.80;;;;;;5035824;28;20033;-38
2022/01/17 06:03:25;;;;;;;22.98;10.73;;;0.70;67.70;;;;;;5035489;28;20036;-38
2022/01/17 06:05:52;;;;;;;24.45;10.43;;;0.70;67.60;;;;;;5035543;28;20029;-39
2022/01/17 06:08:17;;;;;;;21.35;11.10;;;0.70;67.30;;;;;;5035403;28;20041;-39
2022/01/17 06:10:43;;;;;;;23.30;12.00;;;0.70;67.10;;;;;;5035113;28;20132;-38
2022/01/17 06:13:09;;;;;;;24.75;10.90;;;0.80;67.00;;;;;;5035572;28;20307;-36
2022/01/17 06:15:34;;;;;;;22.95;9.95;;;0.80;67.10;;;;;;5035317;28;20040;-36
2022/01/17 06:18:00;;;;;;;21.20;10.90;;;0.80;67.00;;;;;;5034954;28;20033;-38
2022/01/17 06:20:26;;;;;;;24.88;10.95;;;0.80;66.80;;;;;;5035204;28;20429;-36
2022/01/17 06:22:51;;;;;;;20.63;11.27;;;0.90;66.60;;;;;;5037635;28;20060;-36
2022/01/17 06:25:17;;;;;;;23.67;12.15;;;0.90;66.50;;;;;;5043790;28;20033;-36
2022/01/17 06:27:43;;;;;;;33.85;13.63;;;0.90;66.70;;;;;;5035596;28;20418;-36
2022/01/17 06:30:09;;;;;;;29.92;12.55;;;1.00;66.50;;;;;;5035554;28;20056;-36
2022/01/17 06:32:35;;;;;;;22.83;11.20;;;1.00;66.30;;;;;;5035641;28;20279;-37
2022/01/17 06:35:03;;;;;;;22.60;11.60;;;1.10;66.10;;;;;;5034933;28;20084;-36
2022/01/17 06:37:29;;;;;;;19.52;10.63;;;1.10;65.70;;;;;;5035098;28;20322;-36
2022/01/17 06:39:55;;;;;;;22.83;11.00;;;1.20;65.60;;;;;;5035414;28;20035;-39
2022/01/17 06:42:22;;;;;;;23.48;10.23;;;1.20;65.30;;;;;;5035433;28;20472;-39
2022/01/17 06:44:48;;;;;;;20.77;10.43;;;1.20;65.20;;;;;;5035169;28;20088;-39
2022/01/17 06:47:14;;;;;;;24.15;10.73;;;1.30;64.90;;;;;;5035255;28;20034;-37
2022/01/17 06:49:40;;;;;;;23.63;10.57;;;1.30;64.80;;;;;;5034889;28;20140;-38
2022/01/17 06:52:06;;;;;;;23.65;10.45;;;1.30;64.90;;;;;;5035295;28;20057;-39
2022/01/17 06:54:32;;;;;;;23.05;11.07;;;1.40;64.80;;;;;;5035121;28;20037;-38
2022/01/17 06:56:57;;;;;;;25.38;10.45;;;1.40;64.70;;;;;;5034953;28;20116;-36
2022/01/17 06:59:23;;;;;;;18.70;10.30;;;1.40;64.80;;;;;;5034995;28;20037;-36
2022/01/17 07:01:49;;;;;;;21.25;10.27;;;1.50;64.60;;;;;;5035125;28;20064;-36
2022/01/17 07:04:14;;;;;;;21.70;10.05;;;1.50;64.70;;;;;;5034745;28;20034;-36
2022/01/17 07:06:40;;;;;;;24.98;10.57;;;1.60;64.60;;;;;;5034773;28;20053;-36
2022/01/17 07:09:09;;;;;;;23.30;11.35;;;1.60;64.60;;;;;;5035142;28;20325;-39
2022/01/17 07:11:38;;;;;;;24.13;11.07;;;1.60;64.50;;;;;;5035110;28;20087;-36
2022/01/17 07:14:09;;;;;;;24.13;10.80;;;1.60;64.30;;;;;;5035250;28;20330;-36
2022/01/17 07:16:39;;;;;;;22.35;11.68;;;1.70;64.40;;;;;;5034862;28;20033;-39
2022/01/17 07:19:06;;;;;;;26.05;12.75;;;1.70;64.20;;;;;;5034957;28;20433;-37
2022/01/17 07:21:32;;;;;;;29.92;12.15;;;1.70;64.20;;;;;;5034642;28;20037;-36
2022/01/17 07:23:59;;;;;;;22.63;11.48;;;1.80;64.20;;;;;;5035478;28;20036;-36
2022/01/17 07:26:25;;;;;;;28.10;12.00;;;1.80;64.00;;;;;;5034449;28;20422;-39
2022/01/17 07:28:50;;;;;;;23.38;10.98;;;1.90;64.00;;;;;;5035267;28;20117;-36
2022/01/17 07:31:17;;;;;;;27.83;10.82;;;1.90;63.80;;;;;;5038280;28;20037;-38
2022/01/17 07:33:42;;;;;;;29.00;11.63;;;1.90;63.70;;;;;;5038603;28;20406;-36
2022/01/17 07:36:08;;;;;;;25.27;11.73;;;2.00;63.50;;;;;;5038396;28;20027;-36
2022/01/17 07:38:34;;;;;;;33.20;12.85;;;2.00;63.50;;;;;;5038353;28;20029;-38
2022/01/17 07:41:01;;;;;;;25.40;11.88;;;2.00;63.60;;;;;;5039084;28;20029;-36
2022/01/17 07:43:27;;;;;;;23.10;11.90;;;2.00;63.80;;;;;;5039271;28;20441;-38
2022/01/17 07:46:05;;;;;;;22.08;11.52;;;2.10;63.30;;;;;;5050194;28;20029;-39
2022/01/17 07:48:57;;;;;;;25.15;12.18;;;2.10;63.20;;;;;;5038070;28;20411;-39
2022/01/17 07:51:25;;;;;;;18.70;10.00;;;2.20;63.30;;;;;;5042298;28;20079;-36
2022/01/17 07:53:52;;;;;;;21.92;12.13;;;2.30;62.90;;;;;;5057949;28;20057;-36
2022/01/17 07:56:17;;;;;;;21.90;11.25;;;2.30;62.90;;;;;;5057596;28;20039;-36
2022/01/17 07:58:44;;;;;;;30.10;10.85;;;2.30;63.00;;;;;;5057908;28;20029;-36
2022/01/17 08:01:10;;;;;;;22.23;10.70;;;2.40;63.20;;;;;;5057468;28;20437;-36
2022/01/17 08:03:35;;;;;;;22.02;11.70;;;2.40;62.90;;;;;;5043192;28;20061;-36
2022/01/17 08:06:02;;;;;;;31.88;13.00;;;2.50;63.70;;;;;;5046282;28;20098;-39
2022/01/17 08:08:27;;;;;;;20.48;10.70;;;2.50;63.20;;;;;;5077628;28;20029;-39
2022/01/17 08:10:53;;;;;;;28.30;12.05;;;2.50;63.60;;;;;;5077399;28;20032;-39
2022/01/17 08:13:19;;;;;;;20.75;11.10;;;2.50;64.10;;;;;;5077619;28;20035;-39
2022/01/17 08:15:46;;;;;;;23.25;11.85;;;2.60;64.40;;;;;;5077182;28;20028;-39
2022/01/17 08:18:13;;;;;;;23.90;11.10;;;2.60;64.60;;;;;;5077527;28;20021;-36
2022/01/17 08:20:39;;;;;;;22.27;11.00;;;2.60;64.60;;;;;;5061953;28;20032;-36
2022/01/17 08:23:04;;;;;;;33.08;14.00;;;2.60;64.70;;;;;;5057378;28;20032;-39
2022/01/17 08:25:31;;;;;;;25.05;13.32;;;2.60;64.80;;;;;;5056994;28;20041;-36
2022/01/17 08:27:56;;;;;;;34.38;14.88;;;2.60;64.80;;;;;;5057469;28;20059;-36
2022/01/17 08:30:23;;;;;;;27.67;15.55;;;2.60;64.90;;;;;;5057192;28;20036;-37
2022/01/17 08:32:50;;;;;;;37.78;17.73;;;2.60;65.00;;;;;;5057341;28;20119;-38
2022/01/17 08:35:16;;;;;;;30.15;13.80;;;2.70;65.20;;;;;;5056845;28;20404;-36
2022/01/17 08:37:42;;;;;;;24.05;12.68;;;2.70;65.20;;;;;;5057126;28;20376;-38
2022/01/17 08:40:09;;;;;;;27.30;13.57;;;2.80;65.20;;;;;;5056860;28;20063;-36
2022/01/17 08:42:37;;;;;;;26.33;12.18;;;2.90;64.90;;;;;;5056876;28;20033;-36
2022/01/17 08:45:05;;;;;;;30.80;12.40;;;2.90;65.30;;;;;;5056892;28;20041;-39
2022/01/17 08:47:31;;;;;;;26.55;12.90;;;3.00;64.80;;;;;;5057339;28;20115;-38
2022/01/17 08:49:57;;;;;;;25.00;12.35;;;3.00;64.70;;;;;;5056152;28;20077;-39
2022/01/17 08:52:22;;;;;;;28.73;12.90;;;3.00;64.70;;;;;;5056862;28;20301;-36
2022/01/17 08:54:48;;;;;;;25.33;11.93;;;3.10;64.50;;;;;;5056843;28;20123;-39
2022/01/17 08:57:14;;;;;;;26.67;11.40;;;3.10;64.30;;;;;;5057036;28;20060;-37
2022/01/17 08:59:41;;;;;;;25.58;11.35;;;3.20;64.20;;;;;;5056782;28;20091;-40
2022/01/17 09:02:06;;;;;;;27.55;11.45;;;3.20;64.00;;;;;;5055374;28;20364;-39
2022/01/17 09:04:34;;;;;;;26.90;12.77;;;3.20;64.10;;;;;;5056504;28;20033;-37
2022/01/17 09:06:59;;;;;;;24.40;11.65;;;3.20;64.00;;;;;;5056643;28;20107;-36
2022/01/17 09:09:25;;;;;;;23.17;11.10;;;3.20;63.90;;;;;;5055686;28;20374;-39
2022/01/17 09:11:51;;;;;;;28.90;12.40;;;3.30;63.80;;;;;;5047639;28;20041;-37
2022/01/17 09:14:17;;;;;;;29.85;12.18;;;3.30;63.70;;;;;;5036409;28;20295;-39
2022/01/17 09:16:42;;;;;;;25.27;12.63;;;3.40;63.70;;;;;;5036316;28;20040;-39
2022/01/17 09:19:08;;;;;;;26.63;11.98;;;3.40;63.60;;;;;;5036088;28;20040;-38
2022/01/17 09:21:34;;;;;;;22.20;12.05;;;3.50;63.30;;;;;;5036144;28;20425;-36
2022/01/17 09:24:00;;;;;;;27.27;12.27;;;3.50;63.30;;;;;;5036428;28;20038;-38
2022/01/17 09:26:27;;;;;;;35.90;12.98;;;3.50;63.20;;;;;;5035832;28;20076;-38
2022/01/17 09:28:54;;;;;;;26.92;12.32;;;3.60;63.10;;;;;;5036307;28;20109;-39
2022/01/17 09:31:21;;;;;;;29.02;13.13;;;3.60;62.90;;;;;;5036196;28;20037;-37
2022/01/17 09:33:47;;;;;;;30.45;12.90;;;3.60;62.60;;;;;;5036417;28;20079;-38
2022/01/17 09:36:13;;;;;;;28.73;11.73;;;3.60;62.60;;;;;;5036326;28;20357;-36
2022/01/17 09:38:39;;;;;;;22.40;10.90;;;3.60;62.50;;;;;;5036203;28;20370;-36
2022/01/17 09:41:05;;;;;;;25.70;11.82;;;3.70;62.60;;;;;;5035538;28;20030;-39
2022/01/17 09:43:31;;;;;;;28.75;11.52;;;3.70;62.60;;;;;;5036510;28;20041;-36
2022/01/17 09:45:57;;;;;;;25.83;12.40;;;3.70;62.60;;;;;;5040412;28;20370;-37
2022/01/17 09:48:33;;;;;;;27.58;10.75;;;3.70;62.50;;;;;;5041856;28;20037;-39
2022/01/17 09:51:15;;;;;;;27.33;12.57;;;3.70;62.50;;;;;;5035548;28;20038;-36
2022/01/17 09:53:42;;;;;;;22.05;11.63;;;3.80;62.40;;;;;;5035455;28;20038;-39
2022/01/17 09:56:08;;;;;;;21.20;11.20;;;3.80;62.70;;;;;;5034707;28;20029;-38
2022/01/17 09:58:36;;;;;;;22.33;12.32;;;3.80;62.50;;;;;;5035772;28;20033;-37
2022/01/17 10:01:04;;;;;;;21.35;11.05;;;3.90;62.60;;;;;;5035482;28;20083;-36
2022/01/17 10:03:30;;;;;;;26.70;11.25;;;3.90;62.50;;;;;;5036020;28;20072;-37
2022/01/17 10:05:56;;;;;;;23.98;11.32;;;3.90;62.60;;;;;;5035734;28;20136;-39
2022/01/17 10:08:22;;;;;;;22.63;10.75;;;3.90;62.70;;;;;;5035685;28;20033;-36
2022/01/17 10:11:05;;;;;;;22.63;12.05;;;3.90;62.80;;;;;;5035430;28;20033;-37
2022/01/17 10:13:39;;;;;;;21.60;11.82;;;3.90;62.90;;;;;;5035978;28;20045;-36
2022/01/17 10:16:14;;;;;;;28.73;13.02;;;4.00;62.90;;;;;;5055026;28;20112;-39
2022/01/17 10:18:42;;;;;;;25.77;12.73;;;4.00;63.10;;;;;;5055140;28;20041;-39
2022/01/17 10:21:19;;;;;;;28.73;11.57;;;4.10;63.10;;;;;;5055286;28;20037;-37
2022/01/17 10:24:24;;;;;;;23.58;12.35;;;4.10;63.00;;;;;;5055590;28;20081;-39
2022/01/17 10:37:19;;;;;;;26.92;13.07;;;4.20;63.40;;;;;;5055241;28;20071;-37
2022/01/17 10:40:05;;;;;;;24.40;11.88;;;4.30;63.40;;;;;;5054946;28;20033;-34
2022/01/17 10:42:42;;;;;;;19.88;11.00;;;4.30;63.40;;;;;;5054992;28;20037;-35
2022/01/17 10:45:12;;;;;;;22.95;11.35;;;4.40;63.30;;;;;;5055338;28;20322;-36
2022/01/17 10:47:43;;;;;;;20.00;10.98;;;4.40;63.20;;;;;;5055616;28;20035;-36
2022/01/17 10:50:28;;;;;;;23.40;10.88;;;4.50;63.30;;;;;;5054518;28;20480;-36
2022/01/17 10:52:59;;;;;;;24.05;11.40;;;4.50;63.20;;;;;;5055286;28;20037;-40
2022/01/17 10:55:29;;;;;;;22.70;11.32;;;4.60;63.30;;;;;;5054574;28;20052;-39
2022/01/17 10:58:01;;;;;;;26.20;10.93;;;4.60;63.30;;;;;;5055116;28;20056;-38
2022/01/17 11:00:30;;;;;;;30.20;13.35;;;4.70;63.30;;;;;;5054834;28;20451;-37
2022/01/17 11:03:03;;;;;;;23.95;12.63;;;4.60;63.30;;;;;;5052785;28;20053;-38
2022/01/17 11:05:31;;;;;;;22.30;11.88;;;4.70;63.20;;;;;;5053995;28;20116;-39
2022/01/17 11:08:00;;;;;;;24.75;11.90;;;4.70;63.00;;;;;;5053970;28;20104;-36
2022/01/17 11:10:30;;;;;;;22.05;10.85;;;4.70;63.00;;;;;;5038780;28;20390;-36
2022/01/17 11:12:57;;;;;;;23.73;11.98;;;4.70;63.10;;;;;;5038679;28;20064;-39
2022/01/17 11:15:24;;;;;;;21.65;12.27;;;4.70;63.20;;;;;;5038913;28;20037;-36
2022/01/17 11:17:56;;;;;;;26.10;13.32;;;4.70;63.20;;;;;;5038659;28;20436;-39
2022/01/17 11:20:25;;;;;;;20.65;11.80;;;4.70;63.30;;;;;;5038743;28;20061;-38
2022/01/17 11:22:54;;;;;;;22.42;12.40;;;4.60;63.30;;;;;;5038643;28;20037;-39
2022/01/17 11:25:44;;;;;;;43.22;14.68;;;4.70;63.40;;;;;;5037713;28;20053;-36
2022/01/17 11:28:11;;;;;;;26.90;12.40;;;4.70;63.50;;;;;;5038762;28;20032;-36
2022/01/17 11:30:40;;;;;;;26.20;12.35;;;4.70;63.60;;;;;;5038361;28;20420;-36
2022/01/17 11:33:08;;;;;;;24.25;12.15;;;4.70;63.70;;;;;;5037489;28;20025;-38
2022/01/17 11:35:37;;;;;;;21.25;11.30;;;4.60;63.80;;;;;;5038240;28;20329;-39
2022/01/17 11:38:04;;;;;;;26.60;12.35;;;4.60;63.80;;;;;;5038528;28;20056;-38
2022/01/17 11:40:32;;;;;;;22.77;11.95;;;4.70;63.90;;;;;;5037903;28;20056;-38
2022/01/17 11:42:59;;;;;;;31.73;11.90;;;4.70;64.10;;;;;;5038222;28;20096;-39
2022/01/17 11:45:25;;;;;;;23.83;10.88;;;4.70;64.00;;;;;;5038425;28;20125;-36
2022/01/17 11:47:53;;;;;;;21.70;10.65;;;4.70;64.10;;;;;;5037831;28;20280;-36
2022/01/17 11:50:28;;;;;;;22.25;11.32;;;4.80;64.10;;;;;;5037536;28;20075;-39
2022/01/17 11:52:55;;;;;;;22.63;11.80;;;4.80;64.20;;;;;;5037673;28;20029;-39
2022/01/17 11:55:39;;;;;;;30.98;12.52;;;4.70;64.20;;;;;;5038099;28;20073;-36
2022/01/17 11:58:38;;;;;;;22.00;10.80;;;4.70;64.40;;;;;;5038077;28;20072;-39
2022/01/17 12:01:04;;;;;;;24.33;12.52;;;4.70;64.40;;;;;;5037791;28;20033;-36
2022/01/17 12:03:55;;;;;;;19.45;10.95;;;4.70;64.50;;;;;;5037855;28;20044;-36
2022/01/17 12:06:35;;;;;;;26.85;13.25;;;4.70;64.60;;;;;;5037259;28;20043;-39
2022/01/17 12:09:24;;;;;;;20.63;10.63;;;4.60;64.70;;;;;;5037853;28;20410;-36
2022/01/17 12:12:11;;;;;;;21.77;11.65;;;4.70;64.80;;;;;;5037835;28;20048;-39
2022/01/17 12:14:51;;;;;;;21.63;11.10;;;4.60;65.00;;;;;;5037505;28;20037;-36
2022/01/17 12:17:20;;;;;;;20.48;10.63;;;4.60;65.10;;;;;;5037744;28;20029;-39
2022/01/17 12:20:09;;;;;;;20.52;11.63;;;4.60;65.30;;;;;;5037596;28;20049;-36
2022/01/17 12:22:46;;;;;;;23.98;11.50;;;4.60;65.50;;;;;;5037620;28;20045;-34
2022/01/17 12:25:21;;;;;;;25.10;12.88;;;4.60;65.60;;;;;;5037686;28;20025;-36
2022/01/17 12:27:48;;;;;;;22.58;12.63;;;4.50;65.70;;;;;;5037727;28;20057;-36
2022/01/17 12:30:16;;;;;;;27.85;12.75;;;4.50;65.90;;;;;;5036918;28;20037;-39
2022/01/17 12:32:45;;;;;;;18.40;10.82;;;4.50;66.00;;;;;;5037507;28;20059;-37
2022/01/17 12:35:30;;;;;;;23.85;12.75;;;4.50;66.10;;;;;;5037375;28;20048;-39
2022/01/17 12:38:12;;;;;;;23.45;12.32;;;4.50;66.20;;;;;;5037012;28;20032;-36
2022/01/17 12:40:42;;;;;;;24.30;11.68;;;4.50;66.20;;;;;;5036654;28;20033;-36
2022/01/17 12:43:13;;;;;;;18.55;10.88;;;4.50;66.20;;;;;;5036874;28;20034;-39
2022/01/17 12:45:39;;;;;;;22.35;12.05;;;4.50;66.30;;;;;;5036461;28;20491;-39
2022/01/17 12:48:18;;;;;;;24.85;12.07;;;4.50;66.30;;;;;;5048112;28;20044;-36
2022/01/17 12:50:46;;;;;;;20.85;10.52;;;4.50;66.50;;;;;;5055584;28;20037;-37
2022/01/17 12:53:14;;;;;;;21.25;11.02;;;4.50;66.50;;;;;;5056509;28;20295;-38
2022/01/17 12:55:43;;;;;;;19.70;10.88;;;4.50;66.50;;;;;;5056574;28;20040;-37
2022/01/17 12:58:19;;;;;;;23.52;12.05;;;4.50;66.70;;;;;;5056623;28;20035;-36
2022/01/17 13:00:51;;;;;;;25.38;12.07;;;4.50;66.80;;;;;;5055908;28;20038;-36
2022/01/17 13:03:19;;;;;;;19.60;10.98;;;4.50;66.90;;;;;;5051713;28;20025;-39
2022/01/17 13:05:45;;;;;;;21.05;10.82;;;4.50;67.00;;;;;;5056058;28;20052;-40
2022/01/17 13:08:12;;;;;;;27.40;12.43;;;4.50;67.00;;;;;;5042033;28;20086;-36